sensor_id;sensor_type;location;lat;lon;timestamp;P1;durP1;ratioP1;P2;durP2;ratioP2
61704;SDS011;47627;48.078;11.522;2024-03-06T00:01:04;30.67;;;24.80;;
61704;SDS011;47627;48.078;11.522;2024-03-06T00:03:29;29.83;;;24.20;;
61704;SDS011;47627;48.078;11.522;2024-03-06T00:05:55;31.02;;;25.30;;
61704;SDS011;47627;48.078;11.522;2024-03-06T00:08:20;33.65;;;25.55;;
61704;SDS011;47627;48.078;11.522;2024-03-06T00:10:46;37.72;;;28.95;;
61704;SDS011;47627;48.078;11.522;2024-03-06T00:13:12;31.30;;;25.38;;
61704;SDS011;47627;48.078;11.522;2024-03-06T00:15:37;39.63;;;29.15;;
61704;SDS011;47627;48.078;11.522;2024-03-06T00:18:02;40.55;;;30.20;;
61704;SDS011;47627;48.078;11.522;2024-03-06T00:20:29;36.28;;;27.33;;
61704;SDS011;47627;48.078;11.522;2024-03-06T00:22:54;34.35;;;26.08;;
61704;SDS011;47627;48.078;11.522;2024-03-06T00:25:20;34.33;;;26.33;;
61704;SDS011;47627;48.078;11.522;2024-03-06T00:27:46;42.78;;;30.70;;
61704;SDS011;47627;48.078;11.522;2024-03-06T00:30:11;28.10;;;24.23;;
61704;SDS011;47627;48.078;11.522;2024-03-06T00:32:36;30.60;;;25.92;;
61704;SDS011;47627;48.078;11.522;2024-03-06T00:35:01;36.25;;;27.98;;
61704;SDS011;47627;48.078;11.522;2024-03-06T00:37:27;34.47;;;26.95;;
61704;SDS011;47627;48.078;11.522;2024-03-06T00:39:52;29.63;;;24.75;;
61704;SDS011;47627;48.078;11.522;2024-03-06T00:42:17;33.00;;;26.55;;
61704;SDS011;47627;48.078;11.522;2024-03-06T00:44:42;33.40;;;27.40;;
61704;SDS011;47627;48.078;11.522;2024-03-06T00:47:08;32.78;;;27.90;;
61704;SDS011;47627;48.078;11.522;2024-03-06T00:49:34;30.83;;;26.55;;
61704;SDS011;47627;48.078;11.522;2024-03-06T00:51:59;44.50;;;34.42;;
61704;SDS011;47627;48.078;11.522;2024-03-06T00:54:24;35.42;;;27.33;;
61704;SDS011;47627;48.078;11.522;2024-03-06T00:56:49;39.92;;;29.80;;
61704;SDS011;47627;48.078;11.522;2024-03-06T00:59:15;32.28;;;26.63;;
61704;SDS011;47627;48.078;11.522;2024-03-06T01:01:40;36.55;;;29.77;;
61704;SDS011;47627;48.078;11.522;2024-03-06T01:04:06;34.42;;;26.13;;
61704;SDS011;47627;48.078;11.522;2024-03-06T01:06:31;32.13;;;26.10;;
61704;SDS011;47627;48.078;11.522;2024-03-06T01:08:56;30.70;;;25.73;;
61704;SDS011;47627;48.078;11.522;2024-03-06T01:11:23;29.75;;;25.38;;
61704;SDS011;47627;48.078;11.522;2024-03-06T01:13:48;29.35;;;24.00;;
61704;SDS011;47627;48.078;11.522;2024-03-06T01:16:14;31.15;;;25.55;;
61704;SDS011;47627;48.078;11.522;2024-03-06T01:18:39;33.08;;;26.80;;
61704;SDS011;47627;48.078;11.522;2024-03-06T01:21:04;26.92;;;23.98;;
61704;SDS011;47627;48.078;11.522;2024-03-06T01:23:29;29.33;;;24.73;;
61704;SDS011;47627;48.078;11.522;2024-03-06T01:25:55;29.70;;;24.13;;
61704;SDS011;47627;48.078;11.522;2024-03-06T01:28:21;28.65;;;24.00;;
61704;SDS011;47627;48.078;11.522;2024-03-06T01:30:46;27.13;;;23.48;;
61704;SDS011;47627;48.078;11.522;2024-03-06T01:33:11;29.75;;;23.75;;
61704;SDS011;47627;48.078;11.522;2024-03-06T01:35:36;29.10;;;24.13;;
61704;SDS011;47627;48.078;11.522;2024-03-06T01:38:02;30.60;;;24.70;;
61704;SDS011;47627;48.078;11.522;2024-03-06T01:40:27;35.75;;;27.30;;
61704;SDS011;47627;48.078;11.522;2024-03-06T01:42:54;28.38;;;23.70;;
61704;SDS011;47627;48.078;11.522;2024-03-06T01:45:20;29.55;;;24.83;;
61704;SDS011;47627;48.078;11.522;2024-03-06T01:47:45;30.13;;;24.98;;
61704;SDS011;47627;48.078;11.522;2024-03-06T01:50:10;29.90;;;24.88;;
61704;SDS011;47627;48.078;11.522;2024-03-06T01:52:36;26.77;;;22.63;;
61704;SDS011;47627;48.078;11.522;2024-03-06T01:55:02;30.13;;;25.48;;
61704;SDS011;47627;48.078;11.522;2024-03-06T01:57:29;27.05;;;23.10;;
61704;SDS011;47627;48.078;11.522;2024-03-06T01:59:54;29.45;;;24.65;;
61704;SDS011;47627;48.078;11.522;2024-03-06T02:02:20;28.20;;;23.40;;
61704;SDS011;47627;48.078;11.522;2024-03-06T02:04:45;28.45;;;24.35;;
61704;SDS011;47627;48.078;11.522;2024-03-06T02:07:10;32.55;;;24.73;;
61704;SDS011;47627;48.078;11.522;2024-03-06T02:09:36;31.58;;;24.95;;
61704;SDS011;47627;48.078;11.522;2024-03-06T02:12:01;30.13;;;24.90;;
61704;SDS011;47627;48.078;11.522;2024-03-06T02:14:28;30.40;;;24.63;;
61704;SDS011;47627;48.078;11.522;2024-03-06T02:16:54;28.75;;;22.98;;
61704;SDS011;47627;48.078;11.522;2024-03-06T02:19:19;28.92;;;22.83;;
61704;SDS011;47627;48.078;11.522;2024-03-06T02:21:44;28.83;;;23.52;;
61704;SDS011;47627;48.078;11.522;2024-03-06T02:24:10;28.73;;;23.27;;
61704;SDS011;47627;48.078;11.522;2024-03-06T02:26:38;33.75;;;25.15;;
61704;SDS011;47627;48.078;11.522;2024-03-06T02:29:03;28.80;;;24.75;;
61704;SDS011;47627;48.078;11.522;2024-03-06T02:31:30;30.10;;;24.83;;
61704;SDS011;47627;48.078;11.522;2024-03-06T02:33:56;32.13;;;25.13;;
61704;SDS011;47627;48.078;11.522;2024-03-06T02:36:23;16.90;;;13.98;;
61704;SDS011;47627;48.078;11.522;2024-03-06T02:38:49;6.68;;;5.47;;
61704;SDS011;47627;48.078;11.522;2024-03-06T02:41:14;5.57;;;4.75;;
61704;SDS011;47627;48.078;11.522;2024-03-06T02:43:40;4.35;;;3.95;;
61704;SDS011;47627;48.078;11.522;2024-03-06T02:46:06;4.30;;;3.90;;
61704;SDS011;47627;48.078;11.522;2024-03-06T02:48:31;4.40;;;3.67;;
61704;SDS011;47627;48.078;11.522;2024-03-06T02:50:56;4.43;;;4.03;;
61704;SDS011;47627;48.078;11.522;2024-03-06T02:53:22;4.15;;;3.75;;
61704;SDS011;47627;48.078;11.522;2024-03-06T02:55:47;3.50;;;3.20;;
61704;SDS011;47627;48.078;11.522;2024-03-06T02:58:13;5.05;;;3.85;;
61704;SDS011;47627;48.078;11.522;2024-03-06T03:00:40;3.70;;;3.40;;
61704;SDS011;47627;48.078;11.522;2024-03-06T03:03:06;4.05;;;3.75;;
61704;SDS011;47627;48.078;11.522;2024-03-06T03:05:31;3.30;;;3.00;;
61704;SDS011;47627;48.078;11.522;2024-03-06T03:07:58;3.22;;;3.00;;
61704;SDS011;47627;48.078;11.522;2024-03-06T03:10:23;3.85;;;3.55;;
61704;SDS011;47627;48.078;11.522;2024-03-06T03:12:49;3.65;;;3.35;;
61704;SDS011;47627;48.078;11.522;2024-03-06T03:15:14;4.40;;;3.97;;
61704;SDS011;47627;48.078;11.522;2024-03-06T03:17:40;3.80;;;3.50;;
61704;SDS011;47627;48.078;11.522;2024-03-06T03:20:06;4.30;;;3.85;;
61704;SDS011;47627;48.078;11.522;2024-03-06T03:22:40;3.95;;;3.65;;
61704;SDS011;47627;48.078;11.522;2024-03-06T03:25:09;3.97;;;3.45;;
61704;SDS011;47627;48.078;11.522;2024-03-06T03:27:36;3.53;;;3.22;;
61704;SDS011;47627;48.078;11.522;2024-03-06T03:30:01;3.83;;;3.40;;
61704;SDS011;47627;48.078;11.522;2024-03-06T03:32:26;3.95;;;3.10;;
61704;SDS011;47627;48.078;11.522;2024-03-06T03:34:51;3.67;;;3.38;;
61704;SDS011;47627;48.078;11.522;2024-03-06T03:37:17;3.85;;;3.45;;
61704;SDS011;47627;48.078;11.522;2024-03-06T03:39:43;3.50;;;3.20;;
61704;SDS011;47627;48.078;11.522;2024-03-06T03:42:08;3.67;;;3.38;;
61704;SDS011;47627;48.078;11.522;2024-03-06T03:44:34;3.30;;;3.00;;
61704;SDS011;47627;48.078;11.522;2024-03-06T03:46:59;3.55;;;3.25;;
61704;SDS011;47627;48.078;11.522;2024-03-06T03:49:25;3.15;;;2.83;;
61704;SDS011;47627;48.078;11.522;2024-03-06T03:51:51;3.55;;;3.25;;
61704;SDS011;47627;48.078;11.522;2024-03-06T03:54:16;3.72;;;3.42;;
61704;SDS011;47627;48.078;11.522;2024-03-06T03:56:42;3.65;;;3.35;;
61704;SDS011;47627;48.078;11.522;2024-03-06T03:59:07;3.90;;;3.53;;
61704;SDS011;47627;48.078;11.522;2024-03-06T04:01:32;3.35;;;3.05;;
61704;SDS011;47627;48.078;11.522;2024-03-06T04:03:57;3.33;;;3.03;;
61704;SDS011;47627;48.078;11.522;2024-03-06T04:06:23;3.50;;;3.20;;
61704;SDS011;47627;48.078;11.522;2024-03-06T04:08:48;4.00;;;3.70;;
61704;SDS011;47627;48.078;11.522;2024-03-06T04:11:13;4.18;;;3.80;;
61704;SDS011;47627;48.078;11.522;2024-03-06T04:13:39;4.35;;;3.95;;
61704;SDS011;47627;48.078;11.522;2024-03-06T04:16:04;3.72;;;3.42;;
61704;SDS011;47627;48.078;11.522;2024-03-06T04:18:30;3.97;;;3.30;;
61704;SDS011;47627;48.078;11.522;2024-03-06T04:20:59;4.32;;;3.92;;
61704;SDS011;47627;48.078;11.522;2024-03-06T04:23:24;4.03;;;3.63;;
61704;SDS011;47627;48.078;11.522;2024-03-06T04:25:49;4.35;;;3.85;;
61704;SDS011;47627;48.078;11.522;2024-03-06T04:28:15;4.15;;;3.80;;
61704;SDS011;47627;48.078;11.522;2024-03-06T04:30:40;3.95;;;3.65;;
61704;SDS011;47627;48.078;11.522;2024-03-06T04:33:05;5.10;;;4.60;;
61704;SDS011;47627;48.078;11.522;2024-03-06T04:35:30;5.15;;;4.30;;
61704;SDS011;47627;48.078;11.522;2024-03-06T04:37:55;5.28;;;4.78;;
61704;SDS011;47627;48.078;11.522;2024-03-06T04:40:21;5.10;;;4.60;;
61704;SDS011;47627;48.078;11.522;2024-03-06T04:42:47;5.57;;;4.97;;
61704;SDS011;47627;48.078;11.522;2024-03-06T04:45:14;5.47;;;4.97;;
61704;SDS011;47627;48.078;11.522;2024-03-06T04:47:40;5.57;;;5.03;;
61704;SDS011;47627;48.078;11.522;2024-03-06T04:50:08;5.53;;;5.03;;
61704;SDS011;47627;48.078;11.522;2024-03-06T04:52:34;5.32;;;4.82;;
61704;SDS011;47627;48.078;11.522;2024-03-06T04:55:00;4.40;;;4.00;;
61704;SDS011;47627;48.078;11.522;2024-03-06T04:57:25;4.18;;;3.78;;
61704;SDS011;47627;48.078;11.522;2024-03-06T04:59:51;3.80;;;3.50;;
61704;SDS011;47627;48.078;11.522;2024-03-06T05:02:17;5.57;;;4.55;;
61704;SDS011;47627;48.078;11.522;2024-03-06T05:04:42;5.10;;;4.60;;
61704;SDS011;47627;48.078;11.522;2024-03-06T05:07:08;3.80;;;3.50;;
61704;SDS011;47627;48.078;11.522;2024-03-06T05:09:33;4.15;;;3.75;;
61704;SDS011;47627;48.078;11.522;2024-03-06T05:12:00;4.35;;;3.97;;
61704;SDS011;47627;48.078;11.522;2024-03-06T05:14:25;3.97;;;3.67;;
61704;SDS011;47627;48.078;11.522;2024-03-06T05:16:51;4.22;;;3.55;;
61704;SDS011;47627;48.078;11.522;2024-03-06T05:19:16;3.50;;;3.17;;
61704;SDS011;47627;48.078;11.522;2024-03-06T05:21:41;4.45;;;4.05;;
61704;SDS011;47627;48.078;11.522;2024-03-06T05:24:06;3.72;;;3.42;;
61704;SDS011;47627;48.078;11.522;2024-03-06T05:26:32;3.70;;;3.40;;
61704;SDS011;47627;48.078;11.522;2024-03-06T05:28:58;3.80;;;3.50;;
61704;SDS011;47627;48.078;11.522;2024-03-06T05:31:23;4.28;;;3.70;;
61704;SDS011;47627;48.078;11.522;2024-03-06T05:33:50;3.85;;;3.55;;
61704;SDS011;47627;48.078;11.522;2024-03-06T05:36:15;3.95;;;3.58;;
61704;SDS011;47627;48.078;11.522;2024-03-06T05:38:40;3.83;;;3.42;;
61704;SDS011;47627;48.078;11.522;2024-03-06T05:41:06;4.15;;;3.75;;
61704;SDS011;47627;48.078;11.522;2024-03-06T05:43:31;5.97;;;3.58;;
61704;SDS011;47627;48.078;11.522;2024-03-06T05:45:56;4.10;;;3.67;;
61704;SDS011;47627;48.078;11.522;2024-03-06T05:48:22;4.38;;;3.97;;
61704;SDS011;47627;48.078;11.522;2024-03-06T05:50:49;4.53;;;3.90;;
61704;SDS011;47627;48.078;11.522;2024-03-06T05:53:14;3.80;;;3.50;;
61704;SDS011;47627;48.078;11.522;2024-03-06T05:55:39;3.83;;;3.53;;
61704;SDS011;47627;48.078;11.522;2024-03-06T05:58:04;4.30;;;3.90;;
61704;SDS011;47627;48.078;11.522;2024-03-06T06:00:30;4.07;;;3.78;;
61704;SDS011;47627;48.078;11.522;2024-03-06T06:02:56;3.72;;;3.42;;
61704;SDS011;47627;48.078;11.522;2024-03-06T06:05:21;4.00;;;3.17;;
61704;SDS011;47627;48.078;11.522;2024-03-06T06:07:48;3.75;;;3.20;;
61704;SDS011;47627;48.078;11.522;2024-03-06T06:10:13;3.65;;;3.35;;
61704;SDS011;47627;48.078;11.522;2024-03-06T06:12:38;4.03;;;3.72;;
61704;SDS011;47627;48.078;11.522;2024-03-06T06:15:04;4.13;;;3.78;;
61704;SDS011;47627;48.078;11.522;2024-03-06T06:17:29;3.92;;;3.63;;
61704;SDS011;47627;48.078;11.522;2024-03-06T06:19:54;7.10;;;6.50;;
61704;SDS011;47627;48.078;11.522;2024-03-06T06:22:19;4.70;;;4.30;;
61704;SDS011;47627;48.078;11.522;2024-03-06T06:24:45;4.30;;;3.90;;
61704;SDS011;47627;48.078;11.522;2024-03-06T06:27:11;5.53;;;4.45;;
61704;SDS011;47627;48.078;11.522;2024-03-06T06:29:36;4.78;;;4.32;;
61704;SDS011;47627;48.078;11.522;2024-03-06T06:32:02;16.67;;;14.98;;
61704;SDS011;47627;48.078;11.522;2024-03-06T06:34:27;11.35;;;9.68;;
61704;SDS011;47627;48.078;11.522;2024-03-06T06:36:53;23.30;;;14.52;;
61704;SDS011;47627;48.078;11.522;2024-03-06T06:39:18;13.13;;;9.82;;
61704;SDS011;47627;48.078;11.522;2024-03-06T06:41:43;26.00;;;20.50;;
61704;SDS011;47627;48.078;11.522;2024-03-06T06:44:08;5.47;;;4.85;;
61704;SDS011;47627;48.078;11.522;2024-03-06T06:46:34;11.27;;;9.50;;
61704;SDS011;47627;48.078;11.522;2024-03-06T06:48:59;8.18;;;6.57;;
61704;SDS011;47627;48.078;11.522;2024-03-06T06:51:24;17.70;;;13.25;;
61704;SDS011;47627;48.078;11.522;2024-03-06T06:53:50;28.27;;;21.52;;
61704;SDS011;47627;48.078;11.522;2024-03-06T06:56:15;22.48;;;15.23;;
61704;SDS011;47627;48.078;11.522;2024-03-06T06:58:40;6.93;;;6.18;;
61704;SDS011;47627;48.078;11.522;2024-03-06T07:01:08;47.50;;;32.65;;
61704;SDS011;47627;48.078;11.522;2024-03-06T07:03:33;24.85;;;18.95;;
61704;SDS011;47627;48.078;11.522;2024-03-06T07:05:59;10.25;;;8.98;;
61704;SDS011;47627;48.078;11.522;2024-03-06T07:08:24;34.65;;;22.52;;
61704;SDS011;47627;48.078;11.522;2024-03-06T07:10:49;29.23;;;18.75;;
61704;SDS011;47627;48.078;11.522;2024-03-06T07:13:15;10.93;;;8.45;;
61704;SDS011;47627;48.078;11.522;2024-03-06T07:15:40;9.80;;;8.57;;
61704;SDS011;47627;48.078;11.522;2024-03-06T07:18:06;6.15;;;5.47;;
61704;SDS011;47627;48.078;11.522;2024-03-06T07:20:31;6.35;;;5.75;;
61704;SDS011;47627;48.078;11.522;2024-03-06T07:22:57;7.57;;;6.88;;
61704;SDS011;47627;48.078;11.522;2024-03-06T07:25:22;7.70;;;6.05;;
61704;SDS011;47627;48.078;11.522;2024-03-06T07:27:48;5.80;;;5.22;;
61704;SDS011;47627;48.078;11.522;2024-03-06T07:30:13;5.85;;;5.35;;
61704;SDS011;47627;48.078;11.522;2024-03-06T07:32:39;7.32;;;6.63;;
61704;SDS011;47627;48.078;11.522;2024-03-06T07:35:05;5.60;;;4.97;;
61704;SDS011;47627;48.078;11.522;2024-03-06T07:37:31;5.22;;;4.80;;
61704;SDS011;47627;48.078;11.522;2024-03-06T07:39:56;5.82;;;5.32;;
61704;SDS011;47627;48.078;11.522;2024-03-06T07:42:24;5.15;;;4.35;;
61704;SDS011;47627;48.078;11.522;2024-03-06T07:44:49;5.93;;;5.15;;
61704;SDS011;47627;48.078;11.522;2024-03-06T07:47:15;7.70;;;5.13;;
61704;SDS011;47627;48.078;11.522;2024-03-06T07:49:40;5.95;;;5.38;;
61704;SDS011;47627;48.078;11.522;2024-03-06T07:52:06;5.03;;;4.53;;
61704;SDS011;47627;48.078;11.522;2024-03-06T07:54:31;6.50;;;4.85;;
61704;SDS011;47627;48.078;11.522;2024-03-06T07:56:58;9.23;;;4.70;;
61704;SDS011;47627;48.078;11.522;2024-03-06T07:59:23;12.77;;;6.07;;
61704;SDS011;47627;48.078;11.522;2024-03-06T08:01:48;8.63;;;4.72;;
61704;SDS011;47627;48.078;11.522;2024-03-06T08:04:13;8.50;;;5.20;;
61704;SDS011;47627;48.078;11.522;2024-03-06T08:06:39;8.10;;;5.00;;
61704;SDS011;47627;48.078;11.522;2024-03-06T08:09:04;7.28;;;4.38;;
61704;SDS011;47627;48.078;11.522;2024-03-06T08:11:30;8.23;;;4.85;;
61704;SDS011;47627;48.078;11.522;2024-03-06T08:13:58;3.58;;;3.28;;
61704;SDS011;47627;48.078;11.522;2024-03-06T08:16:24;5.38;;;4.78;;
61704;SDS011;47627;48.078;11.522;2024-03-06T08:18:49;8.88;;;4.57;;
61704;SDS011;47627;48.078;11.522;2024-03-06T08:21:14;5.28;;;4.75;;
61704;SDS011;47627;48.078;11.522;2024-03-06T08:23:39;5.90;;;5.20;;
61704;SDS011;47627;48.078;11.522;2024-03-06T08:26:05;5.82;;;4.30;;
61704;SDS011;47627;48.078;11.522;2024-03-06T08:28:30;4.00;;;3.53;;
61704;SDS011;47627;48.078;11.522;2024-03-06T08:30:56;4.90;;;3.80;;
61704;SDS011;47627;48.078;11.522;2024-03-06T08:33:21;3.83;;;3.40;;
61704;SDS011;47627;48.078;11.522;2024-03-06T08:35:47;3.33;;;3.03;;
61704;SDS011;47627;48.078;11.522;2024-03-06T08:38:12;8.90;;;4.20;;
61704;SDS011;47627;48.078;11.522;2024-03-06T08:40:38;5.47;;;3.35;;
61704;SDS011;47627;48.078;11.522;2024-03-06T08:43:04;5.30;;;3.00;;
61704;SDS011;47627;48.078;11.522;2024-03-06T08:45:30;5.25;;;3.58;;
61704;SDS011;47627;48.078;11.522;2024-03-06T08:47:55;8.07;;;3.83;;
61704;SDS011;47627;48.078;11.522;2024-03-06T08:50:20;10.85;;;3.80;;
61704;SDS011;47627;48.078;11.522;2024-03-06T08:52:46;7.20;;;3.17;;
61704;SDS011;47627;48.078;11.522;2024-03-06T08:55:11;7.43;;;3.55;;
61704;SDS011;47627;48.078;11.522;2024-03-06T08:57:37;5.13;;;3.33;;
61704;SDS011;47627;48.078;11.522;2024-03-06T09:00:03;3.00;;;2.67;;
61704;SDS011;47627;48.078;11.522;2024-03-06T09:02:28;4.40;;;3.00;;
61704;SDS011;47627;48.078;11.522;2024-03-06T09:04:53;6.10;;;3.15;;
61704;SDS011;47627;48.078;11.522;2024-03-06T09:07:19;3.90;;;2.60;;
61704;SDS011;47627;48.078;11.522;2024-03-06T09:09:45;6.30;;;3.35;;
61704;SDS011;47627;48.078;11.522;2024-03-06T09:12:10;3.92;;;2.55;;
61704;SDS011;47627;48.078;11.522;2024-03-06T09:14:38;5.53;;;2.92;;
61704;SDS011;47627;48.078;11.522;2024-03-06T09:17:04;5.57;;;3.08;;
61704;SDS011;47627;48.078;11.522;2024-03-06T09:19:30;10.38;;;4.10;;
61704;SDS011;47627;48.078;11.522;2024-03-06T09:21:55;6.20;;;3.22;;
61704;SDS011;47627;48.078;11.522;2024-03-06T09:24:21;9.75;;;4.13;;
61704;SDS011;47627;48.078;11.522;2024-03-06T09:26:48;3.85;;;3.15;;
61704;SDS011;47627;48.078;11.522;2024-03-06T09:29:14;6.63;;;3.92;;
61704;SDS011;47627;48.078;11.522;2024-03-06T09:31:39;3.58;;;2.45;;
61704;SDS011;47627;48.078;11.522;2024-03-06T09:34:04;3.10;;;2.63;;
61704;SDS011;47627;48.078;11.522;2024-03-06T09:36:29;4.85;;;3.00;;
61704;SDS011;47627;48.078;11.522;2024-03-06T09:38:55;4.00;;;2.45;;
61704;SDS011;47627;48.078;11.522;2024-03-06T09:41:21;3.17;;;2.80;;
61704;SDS011;47627;48.078;11.522;2024-03-06T09:43:46;5.60;;;3.30;;
61704;SDS011;47627;48.078;11.522;2024-03-06T09:46:11;3.72;;;3.08;;
61704;SDS011;47627;48.078;11.522;2024-03-06T09:48:36;3.13;;;2.83;;
61704;SDS011;47627;48.078;11.522;2024-03-06T09:51:08;4.25;;;2.67;;
61704;SDS011;47627;48.078;11.522;2024-03-06T09:53:33;3.92;;;2.70;;
61704;SDS011;47627;48.078;11.522;2024-03-06T09:55:59;7.40;;;3.05;;
61704;SDS011;47627;48.078;11.522;2024-03-06T09:58:25;6.82;;;3.25;;
61704;SDS011;47627;48.078;11.522;2024-03-06T10:00:50;6.53;;;4.03;;
61704;SDS011;47627;48.078;11.522;2024-03-06T10:03:15;4.15;;;3.10;;
61704;SDS011;47627;48.078;11.522;2024-03-06T10:05:40;6.93;;;3.70;;
61704;SDS011;47627;48.078;11.522;2024-03-06T10:08:08;9.75;;;3.10;;
61704;SDS011;47627;48.078;11.522;2024-03-06T10:10:33;8.45;;;3.75;;
61704;SDS011;47627;48.078;11.522;2024-03-06T10:12:58;7.28;;;3.53;;
61704;SDS011;47627;48.078;11.522;2024-03-06T10:15:25;5.38;;;3.60;;
61704;SDS011;47627;48.078;11.522;2024-03-06T10:17:52;7.50;;;4.13;;
61704;SDS011;47627;48.078;11.522;2024-03-06T10:22:45;4.43;;;4.03;;
61704;SDS011;47627;48.078;11.522;2024-03-06T10:25:10;3.70;;;3.38;;
61704;SDS011;47627;48.078;11.522;2024-03-06T10:27:35;5.13;;;3.58;;
61704;SDS011;47627;48.078;11.522;2024-03-06T10:30:02;3.53;;;3.22;;
61704;SDS011;47627;48.078;11.522;2024-03-06T10:32:28;3.63;;;3.33;;
61704;SDS011;47627;48.078;11.522;2024-03-06T10:34:55;3.75;;;3.40;;
61704;SDS011;47627;48.078;11.522;2024-03-06T10:37:20;5.40;;;3.80;;
61704;SDS011;47627;48.078;11.522;2024-03-06T10:39:47;5.90;;;4.05;;
61704;SDS011;47627;48.078;11.522;2024-03-06T10:42:16;4.22;;;3.80;;
61704;SDS011;47627;48.078;11.522;2024-03-06T10:44:44;4.93;;;4.18;;
61704;SDS011;47627;48.078;11.522;2024-03-06T10:47:12;3.75;;;3.28;;
61704;SDS011;47627;48.078;11.522;2024-03-06T10:49:38;4.93;;;4.07;;
61704;SDS011;47627;48.078;11.522;2024-03-06T10:52:04;4.10;;;3.42;;
61704;SDS011;47627;48.078;11.522;2024-03-06T10:54:33;7.25;;;3.58;;
61704;SDS011;47627;48.078;11.522;2024-03-06T10:57:04;3.42;;;3.13;;
61704;SDS011;47627;48.078;11.522;2024-03-06T10:59:29;6.47;;;3.65;;
61704;SDS011;47627;48.078;11.522;2024-03-06T11:01:55;4.32;;;3.92;;
61704;SDS011;47627;48.078;11.522;2024-03-06T11:04:21;4.40;;;3.55;;
61704;SDS011;47627;48.078;11.522;2024-03-06T11:06:47;3.45;;;3.10;;
61704;SDS011;47627;48.078;11.522;2024-03-06T11:09:13;4.53;;;3.42;;
61704;SDS011;47627;48.078;11.522;2024-03-06T11:11:47;4.47;;;4.03;;
61704;SDS011;47627;48.078;11.522;2024-03-06T11:14:12;3.40;;;3.10;;
61704;SDS011;47627;48.078;11.522;2024-03-06T11:16:55;5.30;;;3.33;;
61704;SDS011;47627;48.078;11.522;2024-03-06T11:19:21;3.70;;;3.40;;
61704;SDS011;47627;48.078;11.522;2024-03-06T11:21:46;5.82;;;3.00;;
61704;SDS011;47627;48.078;11.522;2024-03-06T11:24:19;4.05;;;3.50;;
61704;SDS011;47627;48.078;11.522;2024-03-06T11:27:03;4.70;;;3.45;;
61704;SDS011;47627;48.078;11.522;2024-03-06T11:30:02;5.85;;;3.97;;
61704;SDS011;47627;48.078;11.522;2024-03-06T11:32:16;4.10;;;3.70;;
61704;SDS011;47627;48.078;11.522;2024-03-06T11:34:41;3.50;;;3.17;;
61704;SDS011;47627;48.078;11.522;2024-03-06T11:37:07;3.50;;;3.20;;
61704;SDS011;47627;48.078;11.522;2024-03-06T11:42:56;4.18;;;3.80;;
61704;SDS011;47627;48.078;11.522;2024-03-06T11:45:21;5.43;;;3.70;;
61704;SDS011;47627;48.078;11.522;2024-03-06T11:47:59;3.80;;;3.47;;
61704;SDS011;47627;48.078;11.522;2024-03-06T11:50:25;4.30;;;3.90;;
61704;SDS011;47627;48.078;11.522;2024-03-06T11:53:36;4.05;;;3.75;;
61704;SDS011;47627;48.078;11.522;2024-03-06T11:56:07;4.35;;;3.88;;
61704;SDS011;47627;48.078;11.522;2024-03-06T11:58:33;4.65;;;4.25;;
61704;SDS011;47627;48.078;11.522;2024-03-06T12:01:02;5.35;;;4.28;;
61704;SDS011;47627;48.078;11.522;2024-03-06T12:03:27;5.07;;;4.13;;
61704;SDS011;47627;48.078;11.522;2024-03-06T12:05:53;4.30;;;3.90;;
61704;SDS011;47627;48.078;11.522;2024-03-06T12:11:16;5.13;;;4.30;;
61704;SDS011;47627;48.078;11.522;2024-03-06T12:13:41;4.50;;;3.92;;
61704;SDS011;47627;48.078;11.522;2024-03-06T12:16:07;4.75;;;4.18;;
61704;SDS011;47627;48.078;11.522;2024-03-06T12:18:32;4.60;;;4.07;;
61704;SDS011;47627;48.078;11.522;2024-03-06T12:21:00;4.90;;;4.40;;
61704;SDS011;47627;48.078;11.522;2024-03-06T12:26:22;7.25;;;4.53;;
61704;SDS011;47627;48.078;11.522;2024-03-06T12:28:48;5.07;;;4.55;;
61704;SDS011;47627;48.078;11.522;2024-03-06T12:31:55;4.38;;;3.78;;
61704;SDS011;47627;48.078;11.522;2024-03-06T12:37:10;4.45;;;4.05;;
61704;SDS011;47627;48.078;11.522;2024-03-06T12:39:35;4.30;;;3.90;;
61704;SDS011;47627;48.078;11.522;2024-03-06T12:42:01;4.22;;;3.83;;
61704;SDS011;47627;48.078;11.522;2024-03-06T12:44:26;7.05;;;3.70;;
61704;SDS011;47627;48.078;11.522;2024-03-06T12:46:51;4.18;;;3.42;;
61704;SDS011;47627;48.078;11.522;2024-03-06T12:49:17;4.85;;;3.60;;
61704;SDS011;47627;48.078;11.522;2024-03-06T12:51:43;3.78;;;3.40;;
61704;SDS011;47627;48.078;11.522;2024-03-06T12:54:09;4.07;;;3.47;;
61704;SDS011;47627;48.078;11.522;2024-03-06T12:56:34;5.28;;;4.20;;
61704;SDS011;47627;48.078;11.522;2024-03-06T12:58:59;5.63;;;4.28;;
61704;SDS011;47627;48.078;11.522;2024-03-06T13:01:24;4.78;;;3.90;;
61704;SDS011;47627;48.078;11.522;2024-03-06T13:03:50;4.93;;;4.10;;
61704;SDS011;47627;48.078;11.522;2024-03-06T13:06:15;4.47;;;4.07;;
61704;SDS011;47627;48.078;11.522;2024-03-06T13:08:41;5.50;;;4.00;;
61704;SDS011;47627;48.078;11.522;2024-03-06T13:11:06;5.25;;;4.45;;
61704;SDS011;47627;48.078;11.522;2024-03-06T13:13:31;4.82;;;4.38;;
61704;SDS011;47627;48.078;11.522;2024-03-06T13:15:59;4.05;;;3.65;;
61704;SDS011;47627;48.078;11.522;2024-03-06T13:18:24;4.28;;;3.88;;
61704;SDS011;47627;48.078;11.522;2024-03-06T13:24:10;3.97;;;3.50;;
61704;SDS011;47627;48.078;11.522;2024-03-06T13:26:35;4.72;;;3.83;;
61704;SDS011;47627;48.078;11.522;2024-03-06T13:29:02;4.32;;;3.90;;
61704;SDS011;47627;48.078;11.522;2024-03-06T13:31:28;4.38;;;3.97;;
61704;SDS011;47627;48.078;11.522;2024-03-06T13:33:53;4.20;;;3.88;;
61704;SDS011;47627;48.078;11.522;2024-03-06T13:36:19;4.18;;;3.80;;
61704;SDS011;47627;48.078;11.522;2024-03-06T13:38:45;4.32;;;3.92;;
61704;SDS011;47627;48.078;11.522;2024-03-06T13:41:10;3.85;;;3.53;;
61704;SDS011;47627;48.078;11.522;2024-03-06T13:43:38;4.47;;;3.78;;
61704;SDS011;47627;48.078;11.522;2024-03-06T13:46:47;8.20;;;4.40;;
61704;SDS011;47627;48.078;11.522;2024-03-06T13:49:24;4.25;;;3.80;;
61704;SDS011;47627;48.078;11.522;2024-03-06T13:51:58;4.82;;;4.32;;
61704;SDS011;47627;48.078;11.522;2024-03-06T13:54:23;4.68;;;4.00;;
61704;SDS011;47627;48.078;11.522;2024-03-06T13:56:48;4.78;;;3.80;;
61704;SDS011;47627;48.078;11.522;2024-03-06T13:59:13;4.68;;;4.07;;
61704;SDS011;47627;48.078;11.522;2024-03-06T14:01:38;4.90;;;4.03;;
61704;SDS011;47627;48.078;11.522;2024-03-06T14:04:04;4.38;;;3.88;;
61704;SDS011;47627;48.078;11.522;2024-03-06T14:06:29;4.40;;;3.72;;
61704;SDS011;47627;48.078;11.522;2024-03-06T14:08:54;5.47;;;4.22;;
61704;SDS011;47627;48.078;11.522;2024-03-06T14:11:20;5.32;;;4.13;;
61704;SDS011;47627;48.078;11.522;2024-03-06T14:13:45;5.25;;;4.47;;
61704;SDS011;47627;48.078;11.522;2024-03-06T14:16:11;4.50;;;4.10;;
61704;SDS011;47627;48.078;11.522;2024-03-06T14:18:37;4.53;;;3.60;;
61704;SDS011;47627;48.078;11.522;2024-03-06T14:21:03;5.40;;;4.25;;
61704;SDS011;47627;48.078;11.522;2024-03-06T14:23:28;5.03;;;4.25;;
61704;SDS011;47627;48.078;11.522;2024-03-06T14:25:54;4.68;;;4.10;;
61704;SDS011;47627;48.078;11.522;2024-03-06T14:28:20;4.13;;;3.72;;
61704;SDS011;47627;48.078;11.522;2024-03-06T14:30:46;5.10;;;4.45;;
61704;SDS011;47627;48.078;11.522;2024-03-06T14:33:12;5.32;;;4.07;;
61704;SDS011;47627;48.078;11.522;2024-03-06T14:35:37;5.10;;;4.15;;
61704;SDS011;47627;48.078;11.522;2024-03-06T14:38:02;4.70;;;4.20;;
61704;SDS011;47627;48.078;11.522;2024-03-06T14:40:27;10.05;;;4.82;;